sensor_id;sensor_type;location;lat;lon;timestamp;pressure;altitude;pressure_sealevel;temperature;humidity
29417;BME280;28421;51.030;4.006;2023-09-12T00:02:00;101330.78;;;19.67;100.00
29417;BME280;28421;51.030;4.006;2023-09-12T00:04:25;101314.84;;;19.64;100.00
29417;BME280;28421;51.030;4.006;2023-09-12T00:06:50;101318.13;;;19.72;100.00
29417;BME280;28421;51.030;4.006;2023-09-12T00:09:16;101318.16;;;19.66;100.00
29417;BME280;28421;51.030;4.006;2023-09-12T00:11:42;101326.28;;;19.79;100.00
29417;BME280;28421;51.030;4.006;2023-09-12T00:14:09;101320.56;;;19.87;100.00
29417;BME280;28421;51.030;4.006;2023-09-12T00:16:34;101327.00;;;19.93;100.00
29417;BME280;28421;51.030;4.006;2023-09-12T00:19:00;101322.53;;;19.98;100.00
29417;BME280;28421;51.030;4.006;2023-09-12T00:21:25;101325.00;;;20.06;100.00
29417;BME280;28421;51.030;4.006;2023-09-12T00:23:51;101319.41;;;19.95;100.00
29417;BME280;28421;51.030;4.006;2023-09-12T00:26:16;101311.00;;;19.71;100.00
29417;BME280;28421;51.030;4.006;2023-09-12T00:28:43;101320.28;;;19.95;100.00
29417;BME280;28421;51.030;4.006;2023-09-12T00:31:09;101308.81;;;19.86;100.00
29417;BME280;28421;51.030;4.006;2023-09-12T00:33:34;101300.09;;;19.71;100.00
29417;BME280;28421;51.030;4.006;2023-09-12T00:35:59;101287.88;;;19.74;100.00
29417;BME280;28421;51.030;4.006;2023-09-12T00:38:25;101312.41;;;19.80;100.00
29417;BME280;28421;51.030;4.006;2023-09-12T00:40:51;101315.03;;;19.94;100.00
29417;BME280;28421;51.030;4.006;2023-09-12T00:43:16;101308.00;;;19.79;100.00
29417;BME280;28421;51.030;4.006;2023-09-12T00:45:42;101306.28;;;19.85;100.00
29417;BME280;28421;51.030;4.006;2023-09-12T00:48:09;101301.38;;;19.94;100.00
29417;BME280;28421;51.030;4.006;2023-09-12T00:50:35;101314.75;;;20.02;100.00
29417;BME280;28421;51.030;4.006;2023-09-12T00:53:02;101315.13;;;20.05;100.00
29417;BME280;28421;51.030;4.006;2023-09-12T00:55:29;101319.91;;;20.10;100.00
29417;BME280;28421;51.030;4.006;2023-09-12T00:57:57;101304.66;;;20.02;100.00
29417;BME280;28421;51.030;4.006;2023-09-12T01:00:22;101313.88;;;20.08;100.00
29417;BME280;28421;51.030;4.006;2023-09-12T01:02:48;101297.13;;;19.98;100.00
29417;BME280;28421;51.030;4.006;2023-09-12T01:05:15;101282.00;;;19.77;100.00
29417;BME280;28421;51.030;4.006;2023-09-12T01:07:42;101299.72;;;19.93;100.00
29417;BME280;28421;51.030;4.006;2023-09-12T01:10:09;101286.81;;;19.50;100.00
29417;BME280;28421;51.030;4.006;2023-09-12T01:12:35;101295.50;;;19.65;100.00
29417;BME280;28421;51.030;4.006;2023-09-12T01:15:01;101293.19;;;19.69;100.00
29417;BME280;28421;51.030;4.006;2023-09-12T01:17:28;101279.78;;;19.67;100.00
29417;BME280;28421;51.030;4.006;2023-09-12T01:19:53;101280.38;;;19.69;100.00
29417;BME280;28421;51.030;4.006;2023-09-12T01:25:51;101270.38;;;19.63;100.00
29417;BME280;28421;51.030;4.006;2023-09-12T01:28:24;101286.66;;;19.70;100.00
29417;BME280;28421;51.030;4.006;2023-09-12T01:30:54;101283.84;;;19.51;100.00
29417;BME280;28421;51.030;4.006;2023-09-12T01:33:20;101275.25;;;19.48;100.00
29417;BME280;28421;51.030;4.006;2023-09-12T01:35:46;101258.44;;;19.57;100.00
29417;BME280;28421;51.030;4.006;2023-09-12T01:38:13;101273.66;;;19.72;100.00
29417;BME280;28421;51.030;4.006;2023-09-12T01:40:46;101275.94;;;19.75;100.00
29417;BME280;28421;51.030;4.006;2023-09-12T01:43:16;101269.97;;;19.53;100.00
29417;BME280;28421;51.030;4.006;2023-09-12T01:45:42;101273.72;;;19.58;100.00
29417;BME280;28421;51.030;4.006;2023-09-12T01:48:11;101271.44;;;19.55;100.00
29417;BME280;28421;51.030;4.006;2023-09-12T01:50:36;101263.09;;;19.50;100.00
29417;BME280;28421;51.030;4.006;2023-09-12T01:53:02;101264.84;;;19.38;100.00
29417;BME280;28421;51.030;4.006;2023-09-12T01:55:28;101262.78;;;19.33;100.00
29417;BME280;28421;51.030;4.006;2023-09-12T01:57:54;101276.31;;;19.47;100.00
29417;BME280;28421;51.030;4.006;2023-09-12T02:00:22;101273.19;;;19.43;100.00
29417;BME280;28421;51.030;4.006;2023-09-12T02:02:48;101273.16;;;19.50;100.00
29417;BME280;28421;51.030;4.006;2023-09-12T02:05:19;101265.19;;;19.48;100.00
29417;BME280;28421;51.030;4.006;2023-09-12T02:07:46;101251.41;;;19.36;100.00
29417;BME280;28421;51.030;4.006;2023-09-12T02:10:12;101269.59;;;19.49;100.00
29417;BME280;28421;51.030;4.006;2023-09-12T02:12:38;101261.22;;;19.44;100.00
29417;BME280;28421;51.030;4.006;2023-09-12T02:15:06;101269.78;;;19.54;100.00
29417;BME280;28421;51.030;4.006;2023-09-12T02:17:31;101270.44;;;19.50;100.00
29417;BME280;28421;51.030;4.006;2023-09-12T02:19:57;101263.13;;;19.44;100.00
29417;BME280;28421;51.030;4.006;2023-09-12T02:22:22;101268.31;;;19.52;100.00
29417;BME280;28421;51.030;4.006;2023-09-12T02:24:48;101254.50;;;19.47;100.00
29417;BME280;28421;51.030;4.006;2023-09-12T02:27:14;101269.34;;;19.57;100.00
29417;BME280;28421;51.030;4.006;2023-09-12T02:29:41;101267.22;;;19.59;100.00
29417;BME280;28421;51.030;4.006;2023-09-12T02:32:07;101248.66;;;19.43;100.00
29417;BME280;28421;51.030;4.006;2023-09-12T02:34:33;101254.09;;;19.43;100.00
29417;BME280;28421;51.030;4.006;2023-09-12T02:36:59;101259.16;;;19.40;100.00
29417;BME280;28421;51.030;4.006;2023-09-12T02:39:24;101268.81;;;19.42;100.00
29417;BME280;28421;51.030;4.006;2023-09-12T02:41:50;101263.44;;;19.29;100.00
29417;BME280;28421;51.030;4.006;2023-09-12T02:44:15;101277.84;;;19.36;100.00
29417;BME280;28421;51.030;4.006;2023-09-12T02:46:41;101263.44;;;19.29;100.00
29417;BME280;28421;51.030;4.006;2023-09-12T02:49:07;101274.69;;;19.39;100.00
29417;BME280;28421;51.030;4.006;2023-09-12T02:51:32;101259.91;;;19.22;100.00
29417;BME280;28421;51.030;4.006;2023-09-12T02:53:58;101265.53;;;19.27;100.00
29417;BME280;28421;51.030;4.006;2023-09-12T02:56:23;101254.03;;;19.25;100.00
29417;BME280;28421;51.030;4.006;2023-09-12T02:58:49;101254.22;;;19.23;100.00
29417;BME280;28421;51.030;4.006;2023-09-12T03:01:19;101252.66;;;19.09;100.00
29417;BME280;28421;51.030;4.006;2023-09-12T03:03:50;101257.31;;;18.95;100.00
29417;BME280;28421;51.030;4.006;2023-09-12T03:06:16;101251.13;;;18.81;100.00
29417;BME280;28421;51.030;4.006;2023-09-12T03:08:44;101248.84;;;18.72;100.00
29417;BME280;28421;51.030;4.006;2023-09-12T03:11:10;101268.50;;;18.80;100.00
29417;BME280;28421;51.030;4.006;2023-09-12T03:13:40;101267.03;;;18.84;100.00
29417;BME280;28421;51.030;4.006;2023-09-12T03:16:13;101269.28;;;18.94;100.00
29417;BME280;28421;51.030;4.006;2023-09-12T03:18:39;101278.88;;;19.03;100.00
29417;BME280;28421;51.030;4.006;2023-09-12T03:21:04;101271.94;;;19.07;100.00
29417;BME280;28421;51.030;4.006;2023-09-12T03:23:30;101275.53;;;19.08;100.00
29417;BME280;28421;51.030;4.006;2023-09-12T03:26:01;101278.81;;;19.17;100.00
29417;BME280;28421;51.030;4.006;2023-09-12T03:28:27;101262.66;;;19.15;100.00
29417;BME280;28421;51.030;4.006;2023-09-12T03:31:03;101267.88;;;19.23;100.00
29417;BME280;28421;51.030;4.006;2023-09-12T03:33:29;101266.44;;;19.21;100.00
29417;BME280;28421;51.030;4.006;2023-09-12T03:35:54;101265.22;;;19.10;100.00
29417;BME280;28421;51.030;4.006;2023-09-12T03:38:20;101261.84;;;19.15;100.00
29417;BME280;28421;51.030;4.006;2023-09-12T03:40:45;101257.63;;;19.19;100.00
29417;BME280;28421;51.030;4.006;2023-09-12T03:43:11;101253.06;;;19.12;100.00
29417;BME280;28421;51.030;4.006;2023-09-12T03:45:36;101263.97;;;19.12;100.00
29417;BME280;28421;51.030;4.006;2023-09-12T03:48:03;101269.19;;;19.14;100.00
29417;BME280;28421;51.030;4.006;2023-09-12T03:50:28;101255.22;;;19.04;100.00
29417;BME280;28421;51.030;4.006;2023-09-12T03:52:54;101257.47;;;19.07;100.00
29417;BME280;28421;51.030;4.006;2023-09-12T03:55:19;101254.41;;;18.97;100.00
29417;BME280;28421;51.030;4.006;2023-09-12T03:57:45;101238.78;;;18.79;100.00
29417;BME280;28421;51.030;4.006;2023-09-12T04:00:11;101249.63;;;18.85;100.00
29417;BME280;28421;51.030;4.006;2023-09-12T04:02:44;101236.19;;;18.91;100.00
29417;BME280;28421;51.030;4.006;2023-09-12T04:05:10;101225.94;;;18.86;100.00
29417;BME280;28421;51.030;4.006;2023-09-12T04:07:36;101234.03;;;18.99;100.00
29417;BME280;28421;51.030;4.006;2023-09-12T04:10:01;101233.84;;;18.94;100.00
29417;BME280;28421;51.030;4.006;2023-09-12T04:12:27;101223.47;;;18.78;100.00
29417;BME280;28421;51.030;4.006;2023-09-12T04:14:52;101234.56;;;18.83;100.00
29417;BME280;28421;51.030;4.006;2023-09-12T04:17:18;101221.56;;;18.85;100.00
29417;BME280;28421;51.030;4.006;2023-09-12T04:19:43;101231.78;;;18.90;100.00
29417;BME280;28421;51.030;4.006;2023-09-12T04:22:08;101219.06;;;18.77;100.00
29417;BME280;28421;51.030;4.006;2023-09-12T04:24:34;101225.19;;;18.72;100.00
29417;BME280;28421;51.030;4.006;2023-09-12T04:26:59;101222.03;;;18.75;100.00
29417;BME280;28421;51.030;4.006;2023-09-12T04:29:25;101217.19;;;18.77;100.00
29417;BME280;28421;51.030;4.006;2023-09-12T04:31:51;101216.38;;;18.70;100.00
29417;BME280;28421;51.030;4.006;2023-09-12T04:34:21;101225.56;;;18.69;100.00
29417;BME280;28421;51.030;4.006;2023-09-12T04:36:47;101224.34;;;18.72;100.00
29417;BME280;28421;51.030;4.006;2023-09-12T04:39:12;101231.47;;;18.73;100.00
29417;BME280;28421;51.030;4.006;2023-09-12T04:41:38;101219.72;;;18.66;100.00
29417;BME280;28421;51.030;4.006;2023-09-12T04:44:04;101237.50;;;18.81;100.00
29417;BME280;28421;51.030;4.006;2023-09-12T04:46:30;101233.53;;;18.77;100.00
29417;BME280;28421;51.030;4.006;2023-09-12T04:48:55;101234.59;;;18.70;100.00
29417;BME280;28421;51.030;4.006;2023-09-12T04:51:21;101241.91;;;18.69;100.00
29417;BME280;28421;51.030;4.006;2023-09-12T04:53:46;101246.34;;;18.70;100.00
29417;BME280;28421;51.030;4.006;2023-09-12T04:56:17;101233.56;;;18.71;100.00
29417;BME280;28421;51.030;4.006;2023-09-12T04:58:42;101234.63;;;18.56;100.00
29417;BME280;28421;51.030;4.006;2023-09-12T05:01:08;101241.97;;;18.56;100.00
29417;BME280;28421;51.030;4.006;2023-09-12T05:03:34;101241.56;;;18.52;100.00
29417;BME280;28421;51.030;4.006;2023-09-12T05:06:00;101235.34;;;18.90;100.00
29417;BME280;28421;51.030;4.006;2023-09-12T05:08:26;101242.75;;;18.83;100.00
29417;BME280;28421;51.030;4.006;2023-09-12T05:10:51;101234.13;;;18.86;100.00
29417;BME280;28421;51.030;4.006;2023-09-12T05:13:17;101232.44;;;18.85;100.00
29417;BME280;28421;51.030;4.006;2023-09-12T05:15:44;101236.56;;;19.01;100.00
29417;BME280;28421;51.030;4.006;2023-09-12T05:18:09;101250.78;;;19.41;100.00
29417;BME280;28421;51.030;4.006;2023-09-12T05:20:36;101239.50;;;19.31;100.00
29417;BME280;28421;51.030;4.006;2023-09-12T05:23:02;101247.03;;;19.35;100.00
29417;BME280;28421;51.030;4.006;2023-09-12T05:25:28;101246.03;;;19.30;100.00
29417;BME280;28421;51.030;4.006;2023-09-12T05:27:54;101235.31;;;18.97;100.00
29417;BME280;28421;51.030;4.006;2023-09-12T05:30:20;101249.03;;;19.15;100.00
29417;BME280;28421;51.030;4.006;2023-09-12T05:32:45;101247.94;;;19.23;100.00
29417;BME280;28421;51.030;4.006;2023-09-12T05:35:11;101246.03;;;19.30;100.00
29417;BME280;28421;51.030;4.006;2023-09-12T05:37:36;101254.59;;;19.33;100.00
29417;BME280;28421;51.030;4.006;2023-09-12T05:40:02;101261.97;;;19.26;100.00
29417;BME280;28421;51.030;4.006;2023-09-12T05:42:28;101256.03;;;19.36;100.00
29417;BME280;28421;51.030;4.006;2023-09-12T05:44:54;101257.69;;;19.12;100.00
29417;BME280;28421;51.030;4.006;2023-09-12T05:47:20;101274.19;;;18.66;100.00
29417;BME280;28421;51.030;4.006;2023-09-12T05:49:47;101272.25;;;18.86;100.00
29417;BME280;28421;51.030;4.006;2023-09-12T05:52:12;101264.22;;;19.04;100.00
29417;BME280;28421;51.030;4.006;2023-09-12T05:54:39;101268.31;;;19.20;100.00
29417;BME280;28421;51.030;4.006;2023-09-12T05:57:06;101260.84;;;19.09;100.00
29417;BME280;28421;51.030;4.006;2023-09-12T05:59:32;101273.69;;;19.33;100.00
29417;BME280;28421;51.030;4.006;2023-09-12T06:01:58;101262.59;;;18.90;100.00
29417;BME280;28421;51.030;4.006;2023-09-12T06:04:23;101279.34;;;19.00;100.00
29417;BME280;28421;51.030;4.006;2023-09-12T06:06:49;101272.19;;;18.99;100.00
29417;BME280;28421;51.030;4.006;2023-09-12T06:09:14;101290.97;;;19.21;100.00
29417;BME280;28421;51.030;4.006;2023-09-12T06:11:40;101301.16;;;19.32;100.00
29417;BME280;28421;51.030;4.006;2023-09-12T06:14:05;101299.88;;;19.41;100.00
29417;BME280;28421;51.030;4.006;2023-09-12T06:16:31;101278.88;;;19.42;100.00
29417;BME280;28421;51.030;4.006;2023-09-12T06:18:56;101258.19;;;19.27;100.00
29417;BME280;28421;51.030;4.006;2023-09-12T06:21:22;101273.06;;;19.31;100.00
29417;BME280;28421;51.030;4.006;2023-09-12T06:23:52;101264.94;;;19.25;100.00
29417;BME280;28421;51.030;4.006;2023-09-12T06:26:32;101295.13;;;19.61;100.00
29417;BME280;28421;51.030;4.006;2023-09-12T06:28:58;101265.94;;;19.30;100.00
29417;BME280;28421;51.030;4.006;2023-09-12T06:31:24;101257.25;;;19.40;100.00
29417;BME280;28421;51.030;4.006;2023-09-12T06:33:49;101267.19;;;19.28;100.00
29417;BME280;28421;51.030;4.006;2023-09-12T06:36:15;101238.25;;;19.33;100.00
29417;BME280;28421;51.030;4.006;2023-09-12T06:38:40;101254.47;;;19.22;100.00
29417;BME280;28421;51.030;4.006;2023-09-12T06:41:06;101289.97;;;19.47;100.00
29417;BME280;28421;51.030;4.006;2023-09-12T06:43:31;101305.13;;;19.74;100.00
29417;BME280;28421;51.030;4.006;2023-09-12T06:45:57;101284.63;;;19.27;100.00
29417;BME280;28421;51.030;4.006;2023-09-12T06:48:22;101288.06;;;19.47;100.00
29417;BME280;28421;51.030;4.006;2023-09-12T06:50:48;101273.31;;;19.55;100.00
29417;BME280;28421;51.030;4.006;2023-09-12T06:53:13;101287.06;;;19.73;100.00
29417;BME280;28421;51.030;4.006;2023-09-12T06:55:39;101270.69;;;19.73;100.00
29417;BME280;28421;51.030;4.006;2023-09-12T06:58:04;101298.59;;;20.00;100.00
29417;BME280;28421;51.030;4.006;2023-09-12T07:00:30;101310.13;;;20.02;100.00
29417;BME280;28421;51.030;4.006;2023-09-12T07:02:56;101319.53;;;20.06;100.00
29417;BME280;28421;51.030;4.006;2023-09-12T07:05:22;101321.59;;;20.11;100.00
29417;BME280;28421;51.030;4.006;2023-09-12T07:07:47;101314.75;;;20.02;100.00
29417;BME280;28421;51.030;4.006;2023-09-12T07:10:12;101307.22;;;19.97;100.00
29417;BME280;28421;51.030;4.006;2023-09-12T07:12:38;101324.31;;;19.86;100.00
29417;BME280;28421;51.030;4.006;2023-09-12T07:15:04;101335.69;;;19.83;100.00
29417;BME280;28421;51.030;4.006;2023-09-12T07:17:29;101335.78;;;19.70;100.00
29417;BME280;28421;51.030;4.006;2023-09-12T07:19:55;101338.81;;;19.86;100.00
29417;BME280;28421;51.030;4.006;2023-09-12T07:22:20;101339.84;;;19.85;100.00
29417;BME280;28421;51.030;4.006;2023-09-12T07:24:46;101337.66;;;20.01;100.00
29417;BME280;28421;51.030;4.006;2023-09-12T07:27:11;101342.78;;;20.16;100.00
29417;BME280;28421;51.030;4.006;2023-09-12T07:29:38;101348.78;;;20.24;100.00
29417;BME280;28421;51.030;4.006;2023-09-12T07:32:03;101357.59;;;20.26;100.00
29417;BME280;28421;51.030;4.006;2023-09-12T07:34:29;101328.91;;;19.92;100.00
29417;BME280;28421;51.030;4.006;2023-09-12T07:36:54;101333.53;;;20.17;100.00
29417;BME280;28421;51.030;4.006;2023-09-12T07:39:20;101343.25;;;20.31;100.00
29417;BME280;28421;51.030;4.006;2023-09-12T07:41:46;101324.91;;;20.20;100.00
29417;BME280;28421;51.030;4.006;2023-09-12T07:44:11;101329.94;;;20.41;100.00
29417;BME280;28421;51.030;4.006;2023-09-12T07:46:40;101339.75;;;19.99;100.00
29417;BME280;28421;51.030;4.006;2023-09-12T07:49:05;101338.03;;;20.04;100.00
29417;BME280;28421;51.030;4.006;2023-09-12T07:51:31;101343.69;;;20.28;100.00
29417;BME280;28421;51.030;4.006;2023-09-12T07:53:56;101346.56;;;20.15;100.00
29417;BME280;28421;51.030;4.006;2023-09-12T07:56:22;101353.28;;;20.37;100.00
29417;BME280;28421;51.030;4.006;2023-09-12T07:58:48;101341.25;;;20.45;100.00
29417;BME280;28421;51.030;4.006;2023-09-12T08:01:14;101357.16;;;20.48;100.00
29417;BME280;28421;51.030;4.006;2023-09-12T08:03:42;101364.63;;;20.41;100.00
29417;BME280;28421;51.030;4.006;2023-09-12T08:06:08;101360.13;;;20.46;100.00
29417;BME280;28421;51.030;4.006;2023-09-12T08:08:34;101363.19;;;20.31;100.00
29417;BME280;28421;51.030;4.006;2023-09-12T08:11:00;101357.19;;;20.23;100.00
29417;BME280;28421;51.030;4.006;2023-09-12T08:13:26;101355.91;;;20.25;100.00
29417;BME280;28421;51.030;4.006;2023-09-12T08:15:56;101355.53;;;20.22;100.00
29417;BME280;28421;51.030;4.006;2023-09-12T08:18:26;101348.72;;;20.06;100.00
29417;BME280;28421;51.030;4.006;2023-09-12T08:20:53;101354.41;;;20.54;100.00
29417;BME280;28421;51.030;4.006;2023-09-12T08:23:18;101342.03;;;20.89;100.00
29417;BME280;28421;51.030;4.006;2023-09-12T08:25:43;101352.38;;;21.05;97.96
29417;BME280;28421;51.030;4.006;2023-09-12T08:28:09;101349.31;;;21.13;96.63
29417;BME280;28421;51.030;4.006;2023-09-12T08:30:34;101352.75;;;21.08;93.06
29417;BME280;28421;51.030;4.006;2023-09-12T08:33:00;101353.13;;;20.94;94.15
29417;BME280;28421;51.030;4.006;2023-09-12T08:35:28;101361.22;;;21.19;94.25
29417;BME280;28421;51.030;4.006;2023-09-12T08:37:53;101347.88;;;20.55;97.02
29417;BME280;28421;51.030;4.006;2023-09-12T08:40:19;101365.66;;;21.01;98.37
29417;BME280;28421;51.030;4.006;2023-09-12T08:42:45;101368.09;;;21.09;96.88
29417;BME280;28421;51.030;4.006;2023-09-12T08:45:19;101363.28;;;21.23;94.75
29417;BME280;28421;51.030;4.006;2023-09-12T08:47:49;101369.31;;;21.32;95.03
29417;BME280;28421;51.030;4.006;2023-09-12T08:50:15;101349.69;;;21.35;94.88
29417;BME280;28421;51.030;4.006;2023-09-12T08:52:45;101345.22;;;21.41;94.91
29417;BME280;28421;51.030;4.006;2023-09-12T08:55:11;101339.81;;;21.34;92.80
29417;BME280;28421;51.030;4.006;2023-09-12T08:57:40;101341.22;;;20.88;93.09
29417;BME280;28421;51.030;4.006;2023-09-12T09:00:07;101353.31;;;21.29;95.23
29417;BME280;28421;51.030;4.006;2023-09-12T09:02:40;101345.44;;;21.02;94.57
29417;BME280;28421;51.030;4.006;2023-09-12T09:05:08;101336.78;;;21.05;94.62
29417;BME280;28421;51.030;4.006;2023-09-12T09:07:39;101347.31;;;21.39;93.91
29417;BME280;28421;51.030;4.006;2023-09-12T09:10:07;101343.81;;;21.50;91.51
29417;BME280;28421;51.030;4.006;2023-09-12T09:12:34;101353.97;;;21.61;93.45
29417;BME280;28421;51.030;4.006;2023-09-12T09:15:23;101348.91;;;21.46;92.19
29417;BME280;28421;51.030;4.006;2023-09-12T09:17:49;101335.41;;;21.33;92.17
29417;BME280;28421;51.030;4.006;2023-09-12T09:20:30;101348.88;;;21.16;93.99
29417;BME280;28421;51.030;4.006;2023-09-12T09:23:06;101342.63;;;21.09;92.38
29417;BME280;28421;51.030;4.006;2023-09-12T09:25:35;101329.47;;;21.18;92.93
29417;BME280;28421;51.030;4.006;2023-09-12T09:28:04;101341.44;;;21.53;94.79
29417;BME280;28421;51.030;4.006;2023-09-12T09:30:44;101323.94;;;21.24;93.71
29417;BME280;28421;51.030;4.006;2023-09-12T09:33:11;101341.22;;;20.88;94.12
29417;BME280;28421;51.030;4.006;2023-09-12T09:35:40;101352.59;;;21.03;96.11
29417;BME280;28421;51.030;4.006;2023-09-12T09:38:07;101339.91;;;21.09;94.37
29417;BME280;28421;51.030;4.006;2023-09-12T09:40:34;101348.50;;;20.94;95.10
29417;BME280;28421;51.030;4.006;2023-09-12T09:43:01;101349.47;;;20.81;94.96
29417;BME280;28421;51.030;4.006;2023-09-12T09:45:30;101347.28;;;21.08;95.20
29417;BME280;28421;51.030;4.006;2023-09-12T09:48:04;101348.19;;;21.21;95.59
29417;BME280;28421;51.030;4.006;2023-09-12T09:50:33;101347.88;;;21.59;94.63
29417;BME280;28421;51.030;4.006;2023-09-12T09:53:00;101328.94;;;21.99;93.02
29417;BME280;28421;51.030;4.006;2023-09-12T09:55:27;101332.56;;;22.23;90.20
29417;BME280;28421;51.030;4.006;2023-09-12T09:57:52;101335.78;;;22.44;85.35
29417;BME280;28421;51.030;4.006;2023-09-12T10:00:20;101340.03;;;22.75;85.60
29417;BME280;28421;51.030;4.006;2023-09-12T10:02:47;101335.63;;;22.50;82.92
29417;BME280;28421;51.030;4.006;2023-09-12T10:05:15;101333.19;;;22.89;84.30
29417;BME280;28421;51.030;4.006;2023-09-12T10:07:46;101338.13;;;23.27;82.20
29417;BME280;28421;51.030;4.006;2023-09-12T10:10:12;101329.00;;;23.39;81.30
29417;BME280;28421;51.030;4.006;2023-09-12T10:12:43;101343.81;;;23.66;81.02
29417;BME280;28421;51.030;4.006;2023-09-12T10:15:11;101342.09;;;23.94;78.77
29417;BME280;28421;51.030;4.006;2023-09-12T10:17:39;101347.81;;;24.26;75.54
29417;BME280;28421;51.030;4.006;2023-09-12T10:20:13;101332.00;;;24.50;75.54
29417;BME280;28421;51.030;4.006;2023-09-12T10:22:45;101337.50;;;24.50;76.48
29417;BME280;28421;51.030;4.006;2023-09-12T10:25:13;101330.69;;;24.52;74.36
29417;BME280;28421;51.030;4.006;2023-09-12T10:27:39;101310.09;;;24.77;74.58
29417;BME280;28421;51.030;4.006;2023-09-12T10:30:07;101335.56;;;24.50;71.69
29417;BME280;28421;51.030;4.006;2023-09-12T10:32:33;101341.63;;;24.14;73.64
29417;BME280;28421;51.030;4.006;2023-09-12T10:34:59;101336.19;;;24.52;74.61
29417;BME280;28421;51.030;4.006;2023-09-12T10:37:26;101327.34;;;24.34;75.57
29417;BME280;28421;51.030;4.006;2023-09-12T10:39:53;101334.00;;;24.21;75.04
29417;BME280;28421;51.030;4.006;2023-09-12T10:42:20;101336.59;;;23.77;75.98
29417;BME280;28421;51.030;4.006;2023-09-12T10:44:46;101334.19;;;23.80;75.17
29417;BME280;28421;51.030;4.006;2023-09-12T10:47:13;101333.47;;;23.56;75.86
29417;BME280;28421;51.030;4.006;2023-09-12T10:49:39;101322.13;;;23.81;77.22
29417;BME280;28421;51.030;4.006;2023-09-12T10:52:05;101325.63;;;23.77;76.46
29417;BME280;28421;51.030;4.006;2023-09-12T10:54:38;101318.63;;;23.69;77.72
29417;BME280;28421;51.030;4.006;2023-09-12T10:57:11;101325.56;;;23.60;76.83
29417;BME280;28421;51.030;4.006;2023-09-12T11:02:37;101343.16;;;23.76;74.90
29417;BME280;28421;51.030;4.006;2023-09-12T11:05:04;101336.84;;;23.75;77.15
29417;BME280;28421;51.030;4.006;2023-09-12T11:12:42;101339.03;;;23.62;73.28
29417;BME280;28421;51.030;4.006;2023-09-12T11:15:08;101331.69;;;23.96;73.21
29417;BME280;28421;51.030;4.006;2023-09-12T11:17:42;101332.38;;;24.03;71.12
29417;BME280;28421;51.030;4.006;2023-09-12T11:20:09;101312.81;;;23.99;69.15
29417;BME280;28421;51.030;4.006;2023-09-12T11:22:39;101341.44;;;23.87;69.42
29417;BME280;28421;51.030;4.006;2023-09-12T11:25:15;101327.78;;;24.09;68.22
29417;BME280;28421;51.030;4.006;2023-09-12T11:30:17;101332.81;;;24.34;70.74
29417;BME280;28421;51.030;4.006;2023-09-12T11:32:45;101327.34;;;24.17;72.52
29417;BME280;28421;51.030;4.006;2023-09-12T11:35:11;101324.69;;;24.22;71.44
29417;BME280;28421;51.030;4.006;2023-09-12T11:37:38;101329.84;;;23.85;72.69
29417;BME280;28421;51.030;4.006;2023-09-12T11:42:42;101322.84;;;24.27;70.18
29417;BME280;28421;51.030;4.006;2023-09-12T11:45:09;101311.88;;;24.11;71.55
29417;BME280;28421;51.030;4.006;2023-09-12T11:47:45;101317.72;;;23.97;70.16
29417;BME280;28421;51.030;4.006;2023-09-12T11:50:27;101325.00;;;24.42;70.40
29417;BME280;28421;51.030;4.006;2023-09-12T11:53:05;101338.03;;;24.47;67.54
29417;BME280;28421;51.030;4.006;2023-09-12T11:55:32;101329.91;;;24.57;66.57
29417;BME280;28421;51.030;4.006;2023-09-12T11:57:58;101322.19;;;24.20;64.88
29417;BME280;28421;51.030;4.006;2023-09-12T12:00:23;101336.56;;;24.61;66.32
29417;BME280;28421;51.030;4.006;2023-09-12T12:02:52;101317.53;;;24.76;66.51
29417;BME280;28421;51.030;4.006;2023-09-12T12:05:18;101321.13;;;24.77;63.68
29417;BME280;28421;51.030;4.006;2023-09-12T12:07:44;101327.94;;;24.96;64.65
29417;BME280;28421;51.030;4.006;2023-09-12T12:10:12;101326.03;;;24.97;63.11
29417;BME280;28421;51.030;4.006;2023-09-12T12:12:37;101329.53;;;25.09;63.74
29417;BME280;28421;51.030;4.006;2023-09-12T12:15:03;101307.97;;;25.28;63.62
29417;BME280;28421;51.030;4.006;2023-09-12T12:17:28;101320.53;;;25.19;62.08
29417;BME280;28421;51.030;4.006;2023-09-12T12:19:54;101309.72;;;25.66;62.80
29417;BME280;28421;51.030;4.006;2023-09-12T12:22:21;101315.84;;;25.73;62.78
29417;BME280;28421;51.030;4.006;2023-09-12T12:24:47;101303.44;;;26.03;62.52
29417;BME280;28421;51.030;4.006;2023-09-12T12:27:16;101302.97;;;26.11;60.04
29417;BME280;28421;51.030;4.006;2023-09-12T12:29:41;101298.38;;;26.27;57.99
29417;BME280;28421;51.030;4.006;2023-09-12T12:32:10;101303.78;;;26.54;58.38
29417;BME280;28421;51.030;4.006;2023-09-12T12:34:36;101298.06;;;26.18;59.74
29417;BME280;28421;51.030;4.006;2023-09-12T12:37:03;101295.00;;;26.57;61.35
29417;BME280;28421;51.030;4.006;2023-09-12T12:39:28;101273.22;;;26.13;59.17
29417;BME280;28421;51.030;4.006;2023-09-12T12:41:54;101271.63;;;26.22;59.88
29417;BME280;28421;51.030;4.006;2023-09-12T12:44:20;101272.31;;;25.38;59.66
29417;BME280;28421;51.030;4.006;2023-09-12T12:46:53;101294.91;;;24.96;62.16
29417;BME280;28421;51.030;4.006;2023-09-12T12:49:20;101289.56;;;24.63;63.83
29417;BME280;28421;51.030;4.006;2023-09-12T12:51:46;101287.34;;;24.60;65.42
29417;BME280;28421;51.030;4.006;2023-09-12T12:54:13;101285.66;;;24.59;64.71
29417;BME280;28421;51.030;4.006;2023-09-12T12:56:39;101278.44;;;24.74;64.90
29417;BME280;28421;51.030;4.006;2023-09-12T12:59:06;101295.13;;;25.12;62.91